首页
METAR-TAF:

METAR-TAF

机场 :

赛义德·易卜拉欣王子国际机场

莫洛尼, 葛摩

纬度: 11-32S, 经度: 043-16E, 海拔: 29米

METAR: 丢失

时间: 13:15 (10:15 UTC)

预报

该预报发布于5小时和15分钟前的05:00 UTC
预报有效从16日的 06点(UTC)到 17日的 12点(UTC)
风速15节,风向南转西南
能见度10公里或以上
少量云层高于2000英尺
散云层高于3000英尺
几率 30% :
短暂存在
从 16日的 08点(UTC)到 16日的 12点(UTC)
少量云层高于2000英尺, 积雨云.
散云层高于3000英尺
阵雨
成为
从 16日的 15点(UTC)到 16日的 17点(UTC)
风速6节,风向
几率 30% :
短暂存在
从 17日的 00点(UTC)到 17日的 04点(UTC)
少量云层高于2000英尺, 积雨云.
散云层高于3000英尺
阵雨
成为
从 17日的 05点(UTC)到 17日的 07点(UTC)
风速17节,风向南转南东

TAF: FMCH 160500Z 1606/1712 21015KT 9999 FEW020 SCT030 PROB30 TEMPO 1608/1612 SHRA FEW020CB SCT030 BECMG 1615/1617 10006KT PROB30 TEMPO 1700/1704 SHRA FEW020CB SCT030 BECMG 1705/1707 16017KT

超过4000个机场的气象观测和天气预报(METAR&TAF报告)。

可查询的气象台以黄色和红色小点在地图上表示。

将鼠标移到小点上方,可查看气象台名称。

然后点击查看天气观测和预报。

如需切换地图:点击带黑十字的绿色按钮放大地图;点击带横线的绿色按钮缩小地图;或者点击绿色箭头查看邻近地区的地图。


METAR-TAF: